Flight Track Log - Related Links

Times and Time Zones

All times are in EST time to prevent confusion due to time zone crossing. See the AZU2440 flight status page for this flight to view local times or setup timezone preferences in your user account.

Time Position Orientation Groundspeed Altitude Reporting Facility
EST Latitude Longitude Course Direction KTS MPH feet Rate Location/Type
03:35AM -22.9854 -46.9783 43° Northeast  Level Estimated
03:36AM -22.9429 -46.9360 43° Northeast  Level Estimated
03:37AM -22.9004 -46.8937 43° Northeast  Level Estimated
03:38AM -22.8629 -46.8565 42° Northeast  Level Estimated
03:39AM -22.8254 -46.8192 42° Northeast  Level Estimated
03:39AM -22.9447 -46.7467 42° Northeast 196 226 9,000  Level FlightAware ADS-B
03:39AM -22.9396 -46.7326 68° East 197 227 9,200 800 Climbing FlightAware ADS-B
03:39AM -22.9370 -46.7257 68° East 197 227 9,400 774 Climbing FlightAware ADS-B
03:39AM -22.9320 -46.7119 68° East 199 229 9,600 774 Climbing FlightAware ADS-B
03:40AM -22.9243 -46.6908 68° East 200 230 9,800 889 Climbing FlightAware ADS-B
03:40AM -22.9205 -46.6804 68° East 201 231 10,000 698 Climbing FlightAware ADS-B
03:40AM -22.9102 -46.6522 68° East 203 234 10,300 667 Climbing FlightAware ADS-B
03:41AM -22.8989 -46.6212 68° East 205 236 10,700 738 Climbing FlightAware ADS-B
03:41AM -22.8866 -46.5877 68° East 205 236 11,100 716 Climbing FlightAware ADS-B
03:42AM -22.8745 -46.5549 68° East 207 238 11,500 656 Climbing FlightAware ADS-B
03:43AM -22.8641 -46.5285 67° East 209 241 11,800 689 Climbing FlightAware ADS-B
03:43AM -22.8504 -46.4977 64° Northeast 208 239 12,200 750 Climbing FlightAware ADS-B
03:44AM -22.8376 -46.4665 66° East 208 239 12,600 764 Climbing FlightAware ADS-B
03:44AM -22.8306 -46.4431 72° East 208 239 12,900 643 Climbing FlightAware ADS-B
03:45AM -22.8212 -46.4093 73° East 211 243 13,200 522 Climbing FlightAware ADS-B
03:45AM -22.8092 -46.3776 68° East 213 245 13,500 646 Climbing FlightAware ADS-B
03:46AM -22.7986 -46.3494 68° East 212 244 13,900 700 Climbing FlightAware ADS-B
03:46AM -22.7872 -46.3184 68° East 207 238 14,200 762 Climbing FlightAware ADS-B
03:47AM -22.7804 -46.3001 68° East 201 231 14,700 646 Climbing FlightAware ADS-B
03:47AM -22.7634 -46.2549 68° East 204 235 14,900 333 Climbing FlightAware ADS-B
03:48AM -22.7554 -46.2351 66° East 205 236 15,000 387 Climbing FlightAware ADS-B
03:48AM -22.7488 -46.2266 50° Northeast 204 235 15,100 558 Climbing FlightAware ADS-B
03:48AM -22.7234 -46.2061 37° Northeast 203 234 15,400 469 Climbing FlightAware ADS-B
03:49AM -22.7044 -46.1913 36° Northeast 204 235 15,600 462 Climbing FlightAware ADS-B
03:49AM -22.6748 -46.1681 36° Northeast 206 237 15,900 462 Climbing FlightAware ADS-B
03:50AM -22.6498 -46.1486 36° Northeast 206 237 16,100 381 Climbing FlightAware ADS-B
03:50AM -22.6240 -46.1283 36° Northeast 208 239 16,300 375 Climbing FlightAware ADS-B
03:51AM -22.5999 -46.1096 36° Northeast 210 242 16,500 369 Climbing FlightAware ADS-B
03:51AM -22.5725 -46.0882 36° Northeast 209 241 16,700 369 Climbing FlightAware ADS-B
03:52AM -22.5485 -46.0695 36° Northeast 208 239 16,900 290 Climbing FlightAware ADS-B
03:53AM -22.5236 -46.0502 36° Northeast 213 245 17,000 97 Climbing FlightAware ADS-B
03:53AM -22.4984 -46.0306 36° Northeast 222 255 17,000  Level FlightAware ADS-B
03:54AM -22.4813 -46.0173 36° Northeast 229 264 17,000  Level FlightAware ADS-B
03:54AM -22.4424 -45.9870 36° Northeast 234 269 17,000 92 Level FlightAware ADS-B
03:55AM -22.4163 -45.9667 36° Northeast 233 268 17,100 281 Climbing FlightAware ADS-B
03:55AM -22.3862 -45.9433 36° Northeast 229 264 17,300 369 Climbing FlightAware ADS-B
03:56AM -22.3589 -45.9221 36° Northeast 227 261 17,500 375 Climbing FlightAware ADS-B
03:56AM -22.3311 -45.9005 36° Northeast 224 258 17,700 343 Climbing FlightAware ADS-B
03:57AM -22.3021 -45.8780 36° Northeast 223 257 17,900 312 Climbing FlightAware ADS-B
03:58AM -22.2660 -45.8500 36° Northeast 223 257 18,100 254 Climbing FlightAware ADS-B
03:58AM -22.2405 -45.8303 36° Northeast 222 255 18,200 277 Climbing FlightAware ADS-B
03:59AM -22.2115 -45.8078 36° Northeast 222 255 18,400 300 Climbing FlightAware ADS-B
03:59AM -22.1732 -45.7780 36° Northeast 222 255 18,600 225 Climbing FlightAware ADS-B
04:00AM -22.1464 -45.7572 36° Northeast 221 254 18,700 304 Climbing FlightAware ADS-B
04:01AM -22.1088 -45.7280 36° Northeast 218 251 19,000 182 Climbing FlightAware ADS-B
04:02AM -22.1088 -45.7280 36° Northeast 227 261 19,000  Level FlightAware ADS-B
04:04AM -22.0313 -45.6658 37° Northeast  Level Estimated
04:05AM -21.9905 -45.6331 37° Northeast  Level Estimated
04:06AM -21.9496 -45.6004 37° Northeast  Level Estimated
04:07AM -21.9088 -45.5677 37° Northeast  Level Estimated
04:08AM -21.8680 -45.5350 37° Northeast  Level Estimated
04:09AM -21.8271 -45.5024 37° Northeast  Level Estimated
04:10AM -21.7863 -45.4698 37° Northeast  Level Estimated
04:11AM -21.7454 -45.4372 37° Northeast  Level Estimated
04:12AM -21.7045 -45.4046 37° Northeast  Level Estimated
04:13AM -21.6637 -45.3720 37° Northeast  Level Estimated
04:14AM -21.6228 -45.3395 37° Northeast  Level Estimated
04:15AM -21.5819 -45.3069 36° Northeast  Level Estimated
04:16AM -21.5410 -45.2744 36° Northeast  Level Estimated
04:17AM -21.5001 -45.2419 36° Northeast  Level Estimated
04:18AM -21.4592 -45.2095 36° Northeast  Level Estimated
04:19AM -21.4183 -45.1770 36° Northeast  Level Estimated
04:20AM -21.3774 -45.1446 36° Northeast  Level Estimated
04:21AM -21.3364 -45.1121 36° Northeast  Level Estimated
04:22AM -21.2955 -45.0798 36° Northeast  Level Estimated
04:23AM -21.2546 -45.0474 36° Northeast  Level Estimated
04:24AM -21.2136 -45.0150 36° Northeast  Level Estimated
04:25AM -21.1727 -44.9827 36° Northeast  Level Estimated
04:26AM -21.1317 -44.9503 36° Northeast  Level Estimated
04:27AM -21.0908 -44.9180 36° Northeast  Level Estimated
04:28AM -21.0498 -44.8857 36° Northeast  Level Estimated
04:29AM -21.0088 -44.8535 36° Northeast  Level Estimated
04:30AM -20.9678 -44.8212 36° Northeast  Level Estimated
04:31AM -20.9268 -44.7890 36° Northeast  Level Estimated
04:32AM -20.8859 -44.7567 36° Northeast  Level Estimated
04:33AM -20.8449 -44.7245 36° Northeast  Level Estimated
04:34AM -20.8039 -44.6923 36° Northeast  Level Estimated
04:35AM -20.7628 -44.6602 36° Northeast  Level Estimated
04:36AM -20.7218 -44.6280 36° Northeast  Level Estimated
04:37AM -20.6808 -44.5959 36° Northeast  Level Estimated
04:38AM -20.6398 -44.5638 36° Northeast  Level Estimated
04:39AM -20.5987 -44.5317 36° Northeast  Level Estimated
04:40AM -20.5577 -44.4996 36° Northeast  Level Estimated
04:41AM -20.5167 -44.4675 36° Northeast  Level Estimated
04:42AM -20.4756 -44.4355 36° Northeast  Level Estimated
04:43AM -20.4345 -44.4034 36° Northeast  Level Estimated
04:44AM -20.3935 -44.3714 36° Northeast  Level Estimated
04:45AM -20.3524 -44.3394 36° Northeast  Level Estimated
04:46AM -20.3113 -44.3074 36° Northeast  Level Estimated

Login

Don't have an account? Register now (free) for customized features, flight alerts, and more!